Time;durP1;ratioP1;P1;durP2;ratioP2;P2;SDS_P1;SDS_P2;PMS_P1;PMS_P2;Temp;Humidity;BMP_temperature;BMP_pressure;BME280_temperature;BME280_humidity;BME280_pressure;Samples;Min_cycle;Max_cycle;Signal;HPM_P1;HPM_P2
2021/01/06 00:00:14;;;;;;;6.00;4.80;;;;;;;3.50;74.06;100789.66;680621;29;21904;-58
2021/01/06 00:00:35;;;;;;;5.38;4.55;;;;;;;3.50;73.87;100790.47;676283;29;138162;-60
2021/01/06 00:00:56;;;;;;;6.43;4.47;;;;;;;3.50;74.00;100790.47;680480;29;23535;-61
2021/01/06 00:01:18;;;;;;;6.72;4.88;;;;;;;3.50;74.07;100787.81;679032;29;43072;-57
2021/01/06 00:01:39;;;;;;;5.85;5.00;;;;;;;3.50;73.95;100790.47;680357;29;23525;-57
2021/01/06 00:02:01;;;;;;;5.68;4.80;;;;;;;3.51;73.93;100794.84;679703;28;41728;-59
2021/01/06 00:02:22;;;;;;;5.50;4.72;;;;;;;3.51;73.79;100791.31;679757;28;24494;-58
2021/01/06 00:02:43;;;;;;;5.15;4.65;;;;;;;3.51;74.16;100789.50;679323;29;46380;-58
2021/01/06 00:03:05;;;;;;;5.70;5.10;;;;;;;3.50;74.03;100785.13;680470;29;16584;-59
2021/01/06 00:03:27;;;;;;;5.10;4.60;;;;;;;3.51;74.03;100788.66;680352;29;23478;-60
2021/01/06 00:03:48;;;;;;;6.43;4.72;;;;;;;3.50;73.90;100789.66;678669;29;70284;-60
2021/01/06 00:04:10;;;;;;;5.25;4.70;;;;;;;3.51;74.06;100788.66;680786;29;13967;-59
2021/01/06 00:04:31;;;;;;;6.82;4.80;;;;;;;3.52;74.11;100793.84;681013;28;10200;-61
2021/01/06 00:04:52;;;;;;;7.05;4.70;;;;;;;3.51;74.02;100792.19;680281;29;18813;-60
2021/01/06 00:05:16;;;;;;;6.20;4.78;;;;;;;3.52;73.95;100785.84;680236;29;7076;-61
2021/01/06 00:05:38;;;;;;;6.05;4.60;;;;;;;3.51;73.79;100784.19;677851;29;90806;-58
2021/01/06 00:06:04;;;;;;;7.05;4.70;;;;;;;3.52;73.93;100787.69;679525;29;47177;-59
2021/01/06 00:06:28;;;;;;;7.32;5.10;;;;;;;3.52;73.84;100783.19;676238;28;139397;-57
2021/01/06 00:06:49;;;;;;;5.43;4.93;;;;;;;3.53;73.95;100789.38;678057;29;92300;-60
2021/01/06 00:07:11;;;;;;;7.32;4.88;;;;;;;3.51;74.06;100788.66;680070;29;23430;-58
2021/01/06 00:07:32;;;;;;;7.00;4.82;;;;;;;3.51;74.05;100786.84;680227;29;23477;-56
2021/01/06 00:07:53;;;;;;;6.35;4.80;;;;;;;3.52;74.18;100782.34;680587;29;24401;-61
2021/01/06 00:08:15;;;;;;;6.55;4.45;;;;;;;3.52;73.84;100787.69;678717;29;46345;-61
2021/01/06 00:08:36;;;;;;;7.13;4.65;;;;;;;3.51;74.04;100778.84;680347;28;22420;-59
2021/01/06 00:08:58;;;;;;;5.13;4.63;;;;;;;3.51;74.19;100786.84;679457;29;44399;-59
2021/01/06 00:09:19;;;;;;;5.38;4.78;;;;;;;3.51;74.11;100786.84;679680;28;46293;-61
2021/01/06 00:09:41;;;;;;;5.40;4.90;;;;;;;3.51;74.03;100776.16;680335;29;23419;-60
2021/01/06 00:10:03;;;;;;;5.60;4.85;;;;;;;3.52;74.00;100790.34;680342;28;23439;-60
2021/01/06 00:10:28;;;;;;;7.05;5.25;;;;;;;3.51;73.96;100777.97;678713;29;68459;-61
2021/01/06 00:10:50;;;;;;;6.82;5.28;;;;;;;3.51;73.96;100788.66;678045;28;92077;-61
2021/01/06 00:11:12;;;;;;;5.63;4.93;;;;;;;3.50;74.09;100785.13;678613;29;69488;-61
2021/01/06 00:11:35;;;;;;;6.43;5.43;;;;;;;3.51;73.89;100786.84;680432;28;21305;-63
2021/01/06 00:11:57;;;;;;;6.57;5.30;;;;;;;3.51;74.02;100785.97;678353;29;70256;-59
2021/01/06 00:12:19;;;;;;;6.32;5.07;;;;;;;3.51;74.11;100785.97;679891;29;23719;-58
2021/01/06 00:12:40;;;;;;;5.85;5.05;;;;;;;3.51;74.11;100784.19;680025;29;33235;-59
2021/01/06 00:13:02;;;;;;;7.10;5.40;;;;;;;3.51;73.73;100781.50;679668;28;46392;-61
2021/01/06 00:13:24;;;;;;;6.38;5.15;;;;;;;3.51;73.87;100778.84;679609;29;47419;-61
2021/01/06 00:13:46;;;;;;;7.38;5.50;;;;;;;3.50;74.00;100782.47;679525;29;46437;-62
2021/01/06 00:14:10;;;;;;;6.45;5.10;;;;;;;3.51;74.05;100781.50;679746;29;43707;-61
2021/01/06 00:14:31;;;;;;;6.57;4.82;;;;;;;3.51;73.94;100783.31;678956;29;69172;-60
2021/01/06 00:14:54;;;;;;;5.95;4.82;;;;;;;3.50;74.07;100779.81;680894;29;1083;-61
2021/01/06 00:15:16;;;;;;;5.57;4.55;;;;;;;3.52;74.07;100779.66;678783;29;46295;-61
2021/01/06 00:15:37;;;;;;;6.70;4.80;;;;;;;3.51;73.99;100786.84;679476;29;47382;-60
2021/01/06 00:15:59;;;;;;;5.82;4.75;;;;;;;3.52;73.99;100782.34;680318;29;22415;-58
2021/01/06 00:16:20;;;;;;;6.45;4.93;;;;;;;3.51;74.00;100781.50;680177;29;21549;-61
2021/01/06 00:16:42;;;;;;;7.32;4.72;;;;;;;3.51;74.02;100784.19;679491;29;44269;-58
2021/01/06 00:17:03;;;;;;;5.63;4.53;;;;;;;3.52;74.02;100777.00;679616;29;46726;-61
2021/01/06 00:17:24;;;;;;;6.15;4.90;;;;;;;3.53;74.26;100776.03;680290;29;21568;-57
2021/01/06 00:17:45;;;;;;;6.95;4.88;;;;;;;3.53;74.07;100776.88;680150;29;21391;-62
2021/01/06 00:18:07;;;;;;;6.22;4.60;;;;;;;3.53;74.01;100776.03;680231;29;21529;-59
2021/01/06 00:18:28;;;;;;;6.65;4.95;;;;;;;3.53;74.19;100776.88;679544;29;44326;-59
2021/01/06 00:18:51;;;;;;;6.45;5.10;;;;;;;3.53;74.15;100779.53;680109;29;23501;-56
2021/01/06 00:19:13;;;;;;;6.05;4.75;;;;;;;3.54;74.06;100778.56;678718;29;70422;-60
2021/01/06 00:19:34;;;;;;;5.75;4.85;;;;;;;3.54;74.23;100772.38;680211;28;22427;-57
2021/01/06 00:19:55;;;;;;;5.95;4.85;;;;;;;3.53;74.10;100782.22;679504;29;46351;-58
2021/01/06 00:20:19;;;;;;;5.63;4.85;;;;;;;3.52;73.96;100783.19;680151;29;23443;-58
2021/01/06 00:20:40;;;;;;;6.10;4.90;;;;;;;3.53;74.11;100778.69;678068;28;90465;-59
2021/01/06 00:21:02;;;;;;;6.57;4.85;;;;;;;3.54;74.01;100780.38;680475;29;17049;-57
2021/01/06 00:21:23;;;;;;;5.57;4.75;;;;;;;3.53;74.20;100771.53;679305;29;46120;-61
2021/01/06 00:21:44;;;;;;;6.05;4.93;;;;;;;3.54;74.07;100767.03;680638;29;11672;-58
2021/01/06 00:22:06;;;;;;;5.80;4.75;;;;;;;3.54;74.00;100775.03;680010;29;23168;-61
2021/01/06 00:22:27;;;;;;;5.18;4.68;;;;;;;3.53;74.07;100776.88;679199;28;47184;-60
2021/01/06 00:22:49;;;;;;;5.85;4.80;;;;;;;3.54;74.00;100773.22;680186;29;24341;-61
2021/01/06 00:23:11;;;;;;;6.38;4.55;;;;;;;3.54;74.08;100775.91;679378;29;46329;-59
2021/01/06 00:23:32;;;;;;;6.00;4.88;;;;;;;3.54;73.84;100775.03;679331;29;46441;-57
2021/01/06 00:23:53;;;;;;;5.35;4.75;;;;;;;3.53;74.02;100776.03;680573;28;22390;-60
2021/01/06 00:24:15;;;;;;;5.88;4.70;;;;;;;3.53;73.96;100776.03;680393;29;23626;-58
2021/01/06 00:24:36;;;;;;;5.72;4.82;;;;;;;3.52;73.97;100777.84;679959;29;34046;-61
2021/01/06 00:24:57;;;;;;;5.53;4.80;;;;;;;3.51;73.93;100767.28;680202;29;21500;-59
2021/01/06 00:25:21;;;;;;;5.55;4.65;;;;;;;3.54;73.97;100775.91;680070;29;22381;-57
2021/01/06 00:25:44;;;;;;;5.93;4.75;;;;;;;3.54;73.98;100775.03;677714;29;93190;-57
2021/01/06 00:26:05;;;;;;;6.95;4.97;;;;;;;3.54;74.05;100781.25;678640;29;69474;-60
2021/01/06 00:26:26;;;;;;;6.72;4.45;;;;;;;3.53;73.87;100773.38;680270;29;21318;-58
2021/01/06 00:26:47;;;;;;;5.43;4.50;;;;;;;3.53;73.95;100773.38;680491;29;21504;-58
2021/01/06 00:27:09;;;;;;;5.15;4.40;;;;;;;3.53;74.20;100779.53;680165;29;21436;-58
2021/01/06 00:27:30;;;;;;;6.15;4.70;;;;;;;3.53;74.06;100779.53;679527;29;44403;-59
2021/01/06 00:27:52;;;;;;;4.80;4.20;;;;;;;3.53;74.11;100771.53;679406;29;22367;-59
2021/01/06 00:28:17;;;;;;;5.15;4.28;;;;;;;3.54;73.99;100777.72;679659;29;44328;-58
2021/01/06 00:28:38;;;;;;;4.43;4.03;;;;;;;3.55;74.06;100774.91;677041;29;117056;-61
2021/01/06 00:29:00;;;;;;;4.53;4.13;;;;;;;3.54;74.07;100769.69;680119;29;24408;-61
2021/01/06 00:29:21;;;;;;;4.28;3.85;;;;;;;3.54;74.15;100772.38;679517;29;46415;-58
2021/01/06 00:29:42;;;;;;;5.25;4.22;;;;;;;3.54;74.10;100767.03;680289;29;23409;-59
2021/01/06 00:30:08;;;;;;;5.25;4.40;;;;;;;3.53;74.02;100768.84;680220;29;23482;-57
2021/01/06 00:30:32;;;;;;;4.32;3.90;;;;;;;3.53;73.99;100766.19;676335;29;139015;-58
2021/01/06 00:30:57;;;;;;;4.22;3.83;;;;;;;3.53;74.09;100773.38;678148;29;84781;-58
2021/01/06 00:31:19;;;;;;;4.25;3.85;;;;;;;3.53;74.07;100768.03;676294;29;137737;-54
2021/01/06 00:31:42;;;;;;;3.95;3.55;;;;;;;3.54;74.19;100772.38;679337;29;46401;-60
2021/01/06 00:32:04;;;;;;;3.95;3.55;;;;;;;3.54;73.98;100767.88;678825;29;57943;-60
2021/01/06 00:32:25;;;;;;;3.95;3.53;;;;;;;3.54;73.93;100773.22;679375;28;46503;-59
2021/01/06 00:32:47;;;;;;;4.32;3.50;;;;;;;3.54;74.10;100769.69;679428;29;46357;-57
2021/01/06 00:33:10;;;;;;;3.80;3.38;;;;;;;3.53;74.01;100779.53;680102;29;21528;-60
2021/01/06 00:33:34;;;;;;;3.90;3.30;;;;;;;3.52;74.00;100763.66;679507;29;53578;-59
2021/01/06 00:33:55;;;;;;;4.25;3.40;;;;;;;3.53;74.07;100779.53;678055;29;91539;-61
2021/01/06 00:34:18;;;;;;;4.18;3.72;;;;;;;3.53;74.35;100768.84;680049;29;21478;-58
2021/01/06 00:34:39;;;;;;;4.45;3.30;;;;;;;3.55;74.09;100779.41;678582;29;70363;-57
2021/01/06 00:35:00;;;;;;;3.40;3.05;;;;;;;3.54;74.11;100775.03;679806;29;21557;-58
2021/01/06 00:35:23;;;;;;;3.63;3.03;;;;;;;3.53;74.17;100770.69;680006;29;22355;-57
2021/01/06 00:35:49;;;;;;;4.15;3.30;;;;;;;3.54;74.05;100775.91;678565;29;69412;-61
2021/01/06 00:36:17;;;;;;;3.47;3.17;;;;;;;3.54;74.15;100765.22;676126;29;137910;-57
2021/01/06 00:36:39;;;;;;;4.38;3.28;;;;;;;3.54;74.08;100773.22;676352;29;137861;-58
2021/01/06 00:37:00;;;;;;;3.55;3.25;;;;;;;3.54;74.19;100772.38;680096;29;23490;-60
2021/01/06 00:37:22;;;;;;;3.47;3.22;;;;;;;3.55;74.13;100782.91;680195;29;21551;-58
2021/01/06 00:37:43;;;;;;;3.45;3.15;;;;;;;3.56;74.08;100781.94;679411;29;46447;-58
2021/01/06 00:38:04;;;;;;;3.35;3.10;;;;;;;3.55;74.35;100774.06;680334;29;21573;-60
2021/01/06 00:38:27;;;;;;;3.60;3.30;;;;;;;3.54;74.08;100778.56;679221;29;39286;-57
2021/01/06 00:38:49;;;;;;;3.40;3.10;;;;;;;3.56;74.02;100781.13;679271;29;47521;-60
2021/01/06 00:39:11;;;;;;;3.90;3.30;;;;;;;3.55;74.12;100774.06;678520;29;69407;-58
2021/01/06 00:39:32;;;;;;;4.03;3.30;;;;;;;3.55;74.12;100774.06;680218;29;22415;-60
2021/01/06 00:39:53;;;;;;;3.45;3.15;;;;;;;3.54;74.14;100775.91;680098;29;22416;-58
2021/01/06 00:40:16;;;;;;;3.25;2.95;;;;;;;3.53;74.03;100776.88;679981;29;23471;-59
2021/01/06 00:40:37;;;;;;;3.40;3.10;;;;;;;3.56;74.20;100778.44;678774;29;69286;-61
2021/01/06 00:40:59;;;;;;;3.38;3.08;;;;;;;3.55;74.18;100777.56;680226;29;22224;-61
2021/01/06 00:41:25;;;;;;;3.97;3.05;;;;;;;3.55;74.21;100774.91;679172;28;46242;-61
2021/01/06 00:41:48;;;;;;;4.22;3.05;;;;;;;3.55;74.12;100774.06;676444;29;136462;-61
2021/01/06 00:42:09;;;;;;;3.08;2.83;;;;;;;3.54;74.14;100777.72;678534;29;69377;-58
2021/01/06 00:42:34;;;;;;;3.25;2.95;;;;;;;3.55;74.21;100771.41;680820;29;4480;-57
2021/01/06 00:42:56;;;;;;;3.30;3.00;;;;;;;3.55;74.12;100774.91;678112;29;91648;-60
2021/01/06 00:43:17;;;;;;;3.15;2.85;;;;;;;3.55;74.16;100771.41;679378;29;46273;-58
2021/01/06 00:43:39;;;;;;;3.13;2.83;;;;;;;3.55;74.18;100779.41;679497;29;45304;-60
2021/01/06 00:44:01;;;;;;;3.65;3.13;;;;;;;3.55;74.21;100774.91;680274;29;22588;-59
2021/01/06 00:44:22;;;;;;;3.30;3.00;;;;;;;3.55;74.29;100776.75;679612;29;44412;-61
2021/01/06 00:44:43;;;;;;;4.45;3.20;;;;;;;3.54;74.05;100775.91;680231;29;21318;-59
2021/01/06 00:45:06;;;;;;;3.78;3.20;;;;;;;3.55;74.24;100772.22;678931;29;46331;-61
2021/01/06 00:45:29;;;;;;;3.00;2.80;;;;;;;3.54;74.17;100775.91;679213;29;69495;-57
2021/01/06 00:45:50;;;;;;;3.13;2.83;;;;;;;3.55;74.21;100774.06;677360;29;46213;-59
2021/01/06 00:46:12;;;;;;;4.10;2.88;;;;;;;3.54;74.28;100781.25;677395;29;44138;-59
2021/01/06 00:46:35;;;;;;;3.15;2.85;;;;;;;3.54;74.10;100769.69;678165;29;22420;-57
2021/01/06 00:46:57;;;;;;;4.07;3.00;;;;;;;3.55;74.06;100780.25;673189;29;92142;-60
2021/01/06 00:47:19;;;;;;;3.42;2.95;;;;;;;3.54;74.06;100772.38;675459;29;44352;-59
2021/01/06 00:47:41;;;;;;;3.95;3.03;;;;;;;3.54;74.01;100773.22;677660;29;22390;-60
2021/01/06 00:48:03;;;;;;;3.50;2.95;;;;;;;3.55;74.06;100771.41;677365;29;46427;-61
2021/01/06 00:48:27;;;;;;;3.40;3.05;;;;;;;3.54;74.17;100775.91;672474;29;114931;-60
2021/01/06 00:48:54;;;;;;;3.55;3.17;;;;;;;3.55;74.12;100774.06;670833;29;137943;-57
2021/01/06 00:49:15;;;;;;;4.75;3.20;;;;;;;3.55;74.13;100768.72;675937;29;23495;-57
2021/01/06 00:49:36;;;;;;;3.30;2.95;;;;;;;3.54;74.09;100778.56;672730;29;45195;-61
2021/01/06 00:49:58;;;;;;;2.92;2.72;;;;;;;3.54;74.25;100778.56;675302;29;23469;-58
2021/01/06 00:50:20;;;;;;;3.20;2.90;;;;;;;3.56;74.35;100773.09;677367;29;23504;-60
2021/01/06 00:50:42;;;;;;;3.25;3.00;;;;;;;3.56;74.24;100781.13;675015;29;69420;-61
2021/01/06 00:51:04;;;;;;;3.40;3.08;;;;;;;3.56;74.03;100776.59;675753;29;23468;-58
2021/01/06 00:51:25;;;;;;;3.22;2.92;;;;;;;3.57;74.18;100770.31;675702;29;44465;-59
2021/01/06 00:51:49;;;;;;;3.30;2.97;;;;;;;3.57;74.05;100772.97;676262;29;46987;-59
2021/01/06 00:52:11;;;;;;;3.10;2.80;;;;;;;3.55;73.85;100768.72;673389;29;84985;-56
2021/01/06 00:52:32;;;;;;;3.35;3.05;;;;;;;3.57;73.99;100774.78;671438;29;46398;-60
2021/01/06 00:52:58;;;;;;;3.50;2.92;;;;;;;3.58;74.25;100773.81;676597;29;15841;-60
2021/01/06 00:53:22;;;;;;;3.30;2.90;;;;;;;3.57;74.06;100770.31;675025;29;115029;-58
2021/01/06 00:53:45;;;;;;;3.22;2.78;;;;;;;3.55;74.23;100769.56;670439;29;138194;-60
2021/01/06 00:54:07;;;;;;;3.30;3.00;;;;;;;3.57;74.00;100772.09;675636;29;46439;-61
2021/01/06 00:54:32;;;;;;;3.47;3.17;;;;;;;3.56;74.11;100771.28;679907;29;44148;-57
2021/01/06 00:54:54;;;;;;;3.90;3.20;;;;;;;3.55;74.13;100774.91;675261;29;115358;-61
2021/01/06 00:55:16;;;;;;;3.40;3.08;;;;;;;3.56;73.99;100767.75;676600;29;45881;-57
2021/01/06 00:55:37;;;;;;;4.38;3.20;;;;;;;3.56;74.06;100770.44;678166;29;23432;-58
2021/01/06 00:56:00;;;;;;;3.75;3.40;;;;;;;3.56;74.31;100768.59;674983;29;44458;-60
2021/01/06 00:56:27;;;;;;;3.40;3.10;;;;;;;3.57;74.11;100769.44;671034;29;92308;-58
2021/01/06 00:56:50;;;;;;;3.38;3.08;;;;;;;3.56;74.02;100771.28;672129;29;137348;-59
2021/01/06 00:57:11;;;;;;;3.40;3.10;;;;;;;3.57;74.04;100772.09;675492;29;45314;-60
2021/01/06 00:57:33;;;;;;;3.95;2.90;;;;;;;3.55;74.17;100769.56;676630;29;23491;-60
2021/01/06 00:57:55;;;;;;;3.03;2.72;;;;;;;3.57;74.12;100772.09;674478;29;46299;-61
2021/01/06 00:58:17;;;;;;;3.47;2.90;;;;;;;3.55;74.33;100771.41;677109;29;14022;-61
2021/01/06 00:58:39;;;;;;;2.95;2.75;;;;;;;3.56;74.27;100770.44;673816;29;44403;-61
2021/01/06 00:59:06;;;;;;;4.18;3.03;;;;;;;3.57;74.05;100766.75;669204;29;136198;-59
2021/01/06 00:59:27;;;;;;;4.70;3.03;;;;;;;3.56;74.22;100768.59;674610;29;22436;-61
2021/01/06 00:59:49;;;;;;;3.72;3.17;;;;;;;3.56;74.16;100767.75;674077;29;46159;-60
2021/01/06 01:00:15;;;;;;;4.47;3.10;;;;;;;3.56;74.22;100771.28;673847;29;45334;-58
2021/01/06 01:00:37;;;;;;;2.78;2.58;;;;;;;3.57;74.13;100769.44;671216;29;138863;-60
2021/01/06 01:01:04;;;;;;;2.97;2.78;;;;;;;3.56;73.96;100759.75;673748;29;137932;-58
2021/01/06 01:01:36;;;;;;;3.10;2.80;;;;;;;3.56;74.07;100768.59;674880;29;137674;-58
2021/01/06 01:01:58;;;;;;;3.05;2.80;;;;;;;3.55;73.88;100760.72;678843;28;91506;-57
2021/01/06 01:02:19;;;;;;;2.88;2.67;;;;;;;3.56;74.16;100768.59;680547;29;22405;-60
2021/01/06 01:02:44;;;;;;;3.22;2.92;;;;;;;3.57;74.15;100764.09;678661;29;46440;-59
2021/01/06 01:03:05;;;;;;;3.83;3.15;;;;;;;3.57;74.12;100764.09;675547;29;114493;-57
2021/01/06 01:03:28;;;;;;;3.25;2.90;;;;;;;3.57;74.02;100766.75;675521;29;40171;-60
2021/01/06 01:03:53;;;;;;;3.08;2.78;;;;;;;3.57;74.24;100767.63;671596;29;114995;-59
2021/01/06 01:04:15;;;;;;;4.05;2.92;;;;;;;3.58;74.04;100760.47;674037;29;44992;-60
2021/01/06 01:04:37;;;;;;;3.35;2.95;;;;;;;3.58;74.22;100766.63;675727;29;69449;-61
2021/01/06 01:04:59;;;;;;;3.35;3.05;;;;;;;3.57;74.07;100762.28;677112;29;22424;-59
2021/01/06 01:05:22;;;;;;;3.03;2.83;;;;;;;3.57;73.98;100766.75;678400;29;21725;-60
2021/01/06 01:05:45;;;;;;;3.65;2.83;;;;;;;3.57;74.22;100756.06;678519;29;69499;-59
2021/01/06 01:06:06;;;;;;;3.35;2.95;;;;;;;3.56;74.21;100763.25;677828;29;90301;-56
2021/01/06 01:06:30;;;;;;;2.95;2.72;;;;;;;3.57;74.12;100769.44;680378;29;21162;-60
2021/01/06 01:06:52;;;;;;;3.20;2.90;;;;;;;3.57;74.12;100764.09;678606;29;69447;-58
2021/01/06 01:07:14;;;;;;;3.40;3.00;;;;;;;3.56;74.08;100760.59;678467;29;69513;-60
2021/01/06 01:07:35;;;;;;;3.05;2.75;;;;;;;3.57;74.14;100764.09;679406;29;45198;-57
2021/01/06 01:07:58;;;;;;;3.20;2.90;;;;;;;3.57;74.32;100764.09;680224;29;23417;-58
2021/01/06 01:08:19;;;;;;;3.10;2.90;;;;;;;3.56;74.25;100755.25;679792;29;44381;-58
2021/01/06 01:08:40;;;;;;;4.18;3.10;;;;;;;3.58;74.18;100760.47;680319;29;22415;-58
2021/01/06 01:09:03;;;;;;;3.47;2.85;;;;;;;3.57;74.31;100764.97;679447;29;47547;-59
2021/01/06 01:09:25;;;;;;;3.05;2.80;;;;;;;3.58;74.25;100760.47;678980;29;68351;-61
2021/01/06 01:09:46;;;;;;;3.10;2.90;;;;;;;3.59;74.18;100756.81;680768;29;23405;-60
2021/01/06 01:10:08;;;;;;;2.95;2.70;;;;;;;3.59;74.00;100760.31;680209;29;46320;-60
2021/01/06 01:10:32;;;;;;;4.38;2.78;;;;;;;3.58;74.11;100755.13;679915;29;46315;-62
2021/01/06 01:10:54;;;;;;;3.90;2.90;;;;;;;3.59;74.31;100754.16;678289;29;92302;-60
2021/01/06 01:11:16;;;;;;;3.08;2.78;;;;;;;3.58;74.05;100753.28;680671;29;21487;-59
2021/01/06 01:11:38;;;;;;;3.03;2.72;;;;;;;3.59;74.13;100754.97;679289;29;69778;-60
2021/01/06 01:12:00;;;;;;;3.22;2.92;;;;;;;3.58;74.17;100755.94;679704;29;44656;-59
2021/01/06 01:12:22;;;;;;;3.05;2.80;;;;;;;3.58;74.15;100755.94;679538;28;45190;-60
2021/01/06 01:12:43;;;;;;;2.97;2.78;;;;;;;3.58;74.09;100753.28;679930;29;45133;-59
2021/01/06 01:13:06;;;;;;;3.75;2.75;;;;;;;3.58;74.05;100753.28;680447;29;23435;-60
2021/01/06 01:13:28;;;;;;;3.08;2.88;;;;;;;3.58;74.22;100753.28;678866;29;70347;-62
2021/01/06 01:13:49;;;;;;;3.10;2.80;;;;;;;3.59;74.14;100752.31;679889;28;45292;-58
2021/01/06 01:14:11;;;;;;;3.25;2.95;;;;;;;3.59;74.13;100752.31;680468;29;23703;-55
2021/01/06 01:14:32;;;;;;;3.00;2.70;;;;;;;3.59;74.22;100754.16;680909;29;22165;-58
2021/01/06 01:14:53;;;;;;;3.17;2.92;;;;;;;3.58;74.18;100755.94;680551;29;24197;-64
2021/01/06 01:15:15;;;;;;;3.88;2.90;;;;;;;3.59;74.29;100751.47;679194;29;47201;-60
2021/01/06 01:15:37;;;;;;;3.63;2.67;;;;;;;3.58;74.07;100758.63;679784;29;46319;-61
2021/01/06 01:15:59;;;;;;;3.00;2.63;;;;;;;3.58;74.03;100747.94;680055;29;46301;-60
2021/01/06 01:16:21;;;;;;;3.22;2.90;;;;;;;3.58;74.08;100747.94;681834;29;22057;-59
2021/01/06 01:16:44;;;;;;;3.03;2.83;;;;;;;3.58;74.02;100747.94;679961;29;70333;-62
2021/01/06 01:17:07;;;;;;;3.42;3.13;;;;;;;3.57;74.24;100746.25;681147;29;46350;-59
2021/01/06 01:17:28;;;;;;;3.10;2.80;;;;;;;3.60;74.08;100753.16;676245;29;69468;-60
2021/01/06 01:17:49;;;;;;;5.40;3.10;;;;;;;3.58;74.11;100750.59;677052;29;45535;-60
2021/01/06 01:18:12;;;;;;;4.50;3.35;;;;;;;3.59;74.08;100751.47;679496;29;867;-60
2021/01/06 01:18:33;;;;;;;3.50;3.20;;;;;;;3.58;73.99;100747.94;679748;29;45344;-57
2021/01/06 01:18:55;;;;;;;3.35;3.05;;;;;;;3.58;74.20;100750.59;679682;29;46227;-58
2021/01/06 01:19:16;;;;;;;3.20;2.97;;;;;;;3.59;74.10;100748.81;680526;29;23456;-57
2021/01/06 01:19:37;;;;;;;3.65;3.28;;;;;;;3.58;74.07;100744.44;679621;29;46224;-61
2021/01/06 01:19:58;;;;;;;3.75;3.45;;;;;;;3.58;74.06;100747.09;680420;29;23654;-59
2021/01/06 01:20:20;;;;;;;3.53;3.22;;;;;;;3.58;74.10;100747.94;680580;29;22387;-60
2021/01/06 01:20:43;;;;;;;3.60;3.30;;;;;;;3.59;74.16;100746.13;679689;29;43766;-58
2021/01/06 01:21:04;;;;;;;3.75;3.45;;;;;;;3.59;74.03;100754.16;678862;29;70336;-57
2021/01/06 01:21:31;;;;;;;4.35;3.80;;;;;;;3.59;74.15;100743.47;680519;29;22281;-60
2021/01/06 01:21:52;;;;;;;4.05;3.50;;;;;;;3.57;74.17;100742.72;674994;29;161792;-61
2021/01/06 01:22:13;;;;;;;3.78;3.35;;;;;;;3.61;74.19;100749.50;679972;29;47272;-58
2021/01/06 01:22:35;;;;;;;3.35;3.05;;;;;;;3.60;74.23;100747.81;680535;28;21552;-59
2021/01/06 01:22:56;;;;;;;3.33;3.03;;;;;;;3.59;74.20;100746.97;679843;28;46343;-60
2021/01/06 01:23:19;;;;;;;3.88;3.10;;;;;;;3.59;74.09;100748.81;681304;29;875;-57
2021/01/06 01:23:41;;;;;;;4.15;3.20;;;;;;;3.59;74.24;100740.78;679155;29;70337;-57
2021/01/06 01:24:03;;;;;;;3.88;3.50;;;;;;;3.59;74.01;100738.13;679791;28;44373;-60
2021/01/06 01:24:24;;;;;;;3.88;3.55;;;;;;;3.59;74.01;100746.97;679816;29;46421;-60
2021/01/06 01:24:45;;;;;;;3.30;3.00;;;;;;;3.60;74.13;100743.34;680599;29;24355;-60
2021/01/06 01:25:07;;;;;;;3.08;2.80;;;;;;;3.59;74.13;100744.28;680150;29;23659;-60
2021/01/06 01:25:29;;;;;;;3.75;3.13;;;;;;;3.59;74.10;100740.78;679717;29;45148;-61
2021/01/06 01:25:57;;;;;;;3.42;3.13;;;;;;;3.60;74.06;100739.78;678695;29;84411;-61
2021/01/06 01:26:19;;;;;;;3.45;3.15;;;;;;;3.61;74.21;100742.34;678929;29;70342;-59
2021/01/06 01:26:40;;;;;;;3.22;2.90;;;;;;;3.62;74.24;100740.53;680447;29;29733;-56
2021/01/06 01:27:02;;;;;;;2.97;2.75;;;;;;;3.60;74.16;100740.66;680706;29;23115;-56
2021/01/06 01:27:23;;;;;;;3.10;2.90;;;;;;;3.59;73.95;100738.13;679785;29;47258;-61
2021/01/06 01:27:44;;;;;;;3.15;2.85;;;;;;;3.60;74.02;100742.47;680905;29;20030;-57
2021/01/06 01:28:06;;;;;;;2.83;2.63;;;;;;;3.60;74.21;100739.78;681345;29;1010;-61
2021/01/06 01:28:28;;;;;;;3.38;2.72;;;;;;;3.60;74.16;100739.78;679789;29;46351;-60
2021/01/06 01:28:49;;;;;;;3.72;2.95;;;;;;;3.59;74.04;100744.28;679970;29;45387;-58
2021/01/06 01:29:11;;;;;;;3.03;2.83;;;;;;;3.60;74.12;100737.13;680539;29;23438;-61
2021/01/06 01:29:32;;;;;;;3.33;2.70;;;;;;;3.59;74.20;100740.78;680035;29;46361;-61
2021/01/06 01:29:53;;;;;;;3.03;2.80;;;;;;;3.60;74.14;100743.34;680711;29;23553;-61
2021/01/06 01:30:17;;;;;;;2.97;2.78;;;;;;;3.59;74.16;100744.28;680548;29;21541;-59
2021/01/06 01:30:39;;;;;;;3.10;2.90;;;;;;;3.60;74.09;100739.78;678530;29;92301;-60
2021/01/06 01:31:00;;;;;;;3.05;2.85;;;;;;;3.60;74.01;100742.47;679928;29;45268;-61
2021/01/06 01:31:30;;;;;;;2.90;2.60;;;;;;;3.59;74.01;100738.13;680543;29;21486;-61
2021/01/06 01:31:51;;;;;;;2.97;2.67;;;;;;;3.58;74.05;100742.59;676500;29;127444;-57
2021/01/06 01:32:13;;;;;;;3.45;2.83;;;;;;;3.59;73.97;100738.13;680582;29;21547;-58
2021/01/06 01:32:34;;;;;;;3.20;2.70;;;;;;;3.58;74.10;100737.25;679422;28;44321;-60
2021/01/06 01:32:56;;;;;;;2.70;2.50;;;;;;;3.58;74.10;100737.25;680980;29;22413;-59
2021/01/06 01:33:17;;;;;;;2.60;2.40;;;;;;;3.58;74.29;100733.75;680562;29;22410;-61
2021/01/06 01:33:41;;;;;;;2.80;2.60;;;;;;;3.58;74.02;100731.91;680247;29;45276;-61
2021/01/06 01:34:03;;;;;;;3.10;2.80;;;;;;;3.58;74.07;100731.06;678602;29;89899;-60
2021/01/06 01:34:24;;;;;;;4.00;2.85;;;;;;;3.59;74.30;100736.28;679839;29;46284;-60
2021/01/06 01:34:45;;;;;;;2.65;2.45;;;;;;;3.59;74.09;100732.78;680771;29;23396;-63
2021/01/06 01:35:07;;;;;;;2.60;2.40;;;;;;;3.60;73.95;100737.13;680120;29;22431;-61
2021/01/06 01:35:30;;;;;;;2.70;2.50;;;;;;;3.60;74.18;100735.31;679921;29;44263;-59
2021/01/06 01:35:52;;;;;;;3.00;2.38;;;;;;;3.60;74.14;100729.13;679160;29;69356;-60
2021/01/06 01:36:13;;;;;;;2.28;2.17;;;;;;;3.58;74.36;100723.91;679912;29;44420;-60
2021/01/06 01:36:34;;;;;;;2.47;2.15;;;;;;;3.60;74.06;100737.13;681447;29;885;-59
2021/01/06 01:36:56;;;;;;;2.50;2.40;;;;;;;3.60;74.21;100735.31;680833;29;20796;-58
2021/01/06 01:37:17;;;;;;;3.47;2.65;;;;;;;3.60;74.22;100731.78;679776;28;46295;-61
2021/01/06 01:37:41;;;;;;;3.10;2.35;;;;;;;3.60;74.21;100731.78;680833;29;22538;-60
2021/01/06 01:38:04;;;;;;;2.60;2.40;;;;;;;3.60;74.23;100734.44;678525;29;93275;-57
2021/01/06 01:38:27;;;;;;;2.70;2.30;;;;;;;3.60;74.27;100735.31;678263;29;68133;-61
2021/01/06 01:38:48;;;;;;;2.45;2.25;;;;;;;3.60;74.10;100734.44;678828;29;69471;-60
2021/01/06 01:39:10;;;;;;;2.58;2.38;;;;;;;3.60;74.21;100729.97;680553;29;23712;-59
2021/01/06 01:39:31;;;;;;;2.35;2.20;;;;;;;3.59;74.09;100730.13;679870;29;45244;-59
2021/01/06 01:39:52;;;;;;;2.50;2.30;;;;;;;3.58;74.12;100726.56;680730;29;23416;-62
2021/01/06 01:40:19;;;;;;;2.40;2.20;;;;;;;3.59;73.88;100730.13;680828;29;22503;-57
2021/01/06 01:40:41;;;;;;;2.58;2.38;;;;;;;3.60;74.14;100729.97;676658;29;136422;-61
2021/01/06 01:41:06;;;;;;;2.63;2.20;;;;;;;3.60;74.12;100732.66;679980;29;46397;-58
2021/01/06 01:41:28;;;;;;;2.90;2.38;;;;;;;3.60;74.29;100723.78;677387;29;114334;-60
2021/01/06 01:41:56;;;;;;;2.65;2.40;;;;;;;3.60;74.23;100721.09;679570;29;46549;-60
2021/01/06 01:42:18;;;;;;;3.15;2.45;;;;;;;3.61;74.16;100728.16;676155;28;160926;-58
2021/01/06 01:42:39;;;;;;;3.03;2.50;;;;;;;3.60;74.17;100727.31;679656;28;46187;-60
2021/01/06 01:43:03;;;;;;;2.53;2.40;;;;;;;3.62;74.25;100727.19;680572;29;22404;-60
2021/01/06 01:43:25;;;;;;;2.25;2.15;;;;;;;3.61;74.30;100734.31;678105;29;90877;-61
2021/01/06 01:43:46;;;;;;;2.40;2.20;;;;;;;3.61;74.16;100728.97;679885;29;45288;-61
2021/01/06 01:44:08;;;;;;;2.53;2.30;;;;;;;3.61;74.12;100728.97;680752;29;23494;-60
2021/01/06 01:44:30;;;;;;;2.50;2.30;;;;;;;3.60;74.09;100727.31;679039;29;69488;-58
2021/01/06 01:44:55;;;;;;;2.40;2.10;;;;;;;3.60;74.14;100723.78;680573;29;22407;-61
2021/01/06 01:45:17;;;;;;;3.58;2.25;;;;;;;3.61;74.21;100722.81;676581;29;137956;-61
2021/01/06 01:45:40;;;;;;;3.65;2.60;;;;;;;3.60;74.20;100724.63;680744;29;21331;-59
2021/01/06 01:46:34;;;;;;;2.83;2.38;;;;;;;3.61;74.42;100725.47;679157;29;69488;-61